Terminal Aerodrome Forecast
Issued by NWS Louisville, KY

Home | Current Version | Previous Version | Text Only | Print | Product List | Glossary On
Versions: 1 2 3 4 5 6 7 8 9 10 11 12 13
979
FTUS43 KLMK 300520
TAFLEX
TAF
KLEX 300520Z 3006/3106 VRB03KT P6SM SCT250
     FM300900 VRB03KT 3SM BR SCT250
     FM301400 34006KT P6SM SCT060
     FM310000 VRB03KT P6SM SKC=

USA.gov is the U.S. government's official web portal to all federal, state and local government web resources and services.